Grena, Denmark
Current Conditions -  °F | °C
As of 9:50 PM on Thursday 27 Nov 2014 (Local Time) from EKAH Reporting Station
Scattered Clouds Scattered Clouds  
Wind Chill: 36°   Ceiling: Unl
Heat Index: 43°   Visibility: 6mi
Dew Point: 34°   Wind: 14mph
Humidity: 70%   Direction: 120°ESE
Pressure: 30.12"   Gusts: NA
Location:  56.41°N, 10.89°E
Report Text: EKAH 272050Z AUTO 12012KT 090V150 9999NDV FEW018/// SCT039///06/01 Q1020
Loading
Personal Weather Stations






























Interactive Weather Map New forecast layout! Learn more

10-Day Weather Forecast

Advertisements
Track Severe Weather on mobile